Time;durP1;ratioP1;P1;durP2;ratioP2;P2;SDS_P1;SDS_P2;PMS_P1;PMS_P2;Temp;Humidity;BMP_temperature;BMP_pressure;BME280_temperature;BME280_humidity;BME280_pressure;Samples;Min_cycle;Max_cycle;Signal;HPM_P1;HPM_P2
2024/01/27 00:01:46;;;;;;;10.90;2.67;;;;;;;2.93;100.00;103502.63;6081105;19;20015;-72
2024/01/27 00:03:51;;;;;;;10.88;2.55;;;;;;;2.90;100.00;103507.72;6082888;19;20010;-72
2024/01/27 00:05:56;;;;;;;7.10;2.35;;;;;;;2.85;100.00;103502.38;6082856;19;21188;-72
2024/01/27 00:08:02;;;;;;;8.32;2.97;;;;;;;2.86;100.00;103492.84;6081106;19;20002;-72
2024/01/27 00:10:08;;;;;;;10.30;2.97;;;;;;;2.82;100.00;103499.66;6082846;19;20014;-72
2024/01/27 00:12:16;;;;;;;2.13;1.92;;;;;;;2.93;100.00;103500.03;6083840;19;20389;-72
2024/01/27 00:14:21;;;;;;;10.00;2.75;;;;;;;2.90;100.00;103506.81;6082132;19;20470;-71
2024/01/27 00:16:26;;;;;;;10.15;2.83;;;;;;;2.92;100.00;103506.03;6083022;19;20093;-71
2024/01/27 00:18:31;;;;;;;6.03;2.17;;;;;;;2.83;100.00;103500.53;6084517;19;20029;-73
2024/01/27 00:20:33;;;;;;;10.07;3.45;;;;;;;2.80;100.00;103497.84;6085131;19;20334;-73
2024/01/27 00:22:38;;;;;;;15.82;2.85;;;;;;;2.77;100.00;103500.34;6081856;19;20019;-72
2024/01/27 00:24:43;;;;;;;9.75;2.38;;;;;;;2.85;100.00;103506.69;6084848;19;20027;-72
2024/01/27 00:26:48;;;;;;;10.27;1.95;;;;;;;2.88;100.00;103503.31;6083129;19;20602;-73
2024/01/27 00:28:56;;;;;;;10.20;2.53;;;;;;;2.82;100.00;103499.66;6082139;19;20015;-73
2024/01/27 00:31:02;;;;;;;6.30;1.98;;;;;;;2.86;100.00;103498.91;6079752;19;20010;-73
2024/01/27 00:33:08;;;;;;;8.38;3.08;;;;;;;2.86;100.00;103500.63;6082254;19;20010;-73
2024/01/27 00:35:14;;;;;;;11.88;2.45;;;;;;;2.93;100.00;103496.56;6085062;19;20015;-72
2024/01/27 00:37:19;;;;;;;10.98;2.35;;;;;;;2.95;100.00;103494.88;6084077;19;20011;-71
2024/01/27 00:39:24;;;;;;;7.38;2.85;;;;;;;3.04;100.00;103496.06;6082204;19;20022;-71
2024/01/27 00:41:27;;;;;;;6.25;2.25;;;;;;;3.01;100.00;103516.75;6083797;19;20046;-74
2024/01/27 00:43:32;;;;;;;2.85;2.15;;;;;;;3.00;100.00;103504.59;6081976;19;20014;-72
2024/01/27 00:45:40;;;;;;;8.93;2.38;;;;;;;2.93;100.00;103507.81;6078881;19;20022;-72
2024/01/27 00:47:45;;;;;;;5.55;2.17;;;;;;;2.87;100.00;103497.22;6083048;19;20010;-72
2024/01/27 00:49:53;;;;;;;13.82;3.72;;;;;;;2.85;100.00;103510.16;6082846;19;20011;-72
2024/01/27 00:52:01;;;;;;;8.27;2.97;;;;;;;2.87;100.00;103518.00;6084807;19;20034;-73
2024/01/27 00:54:03;;;;;;;11.75;2.72;;;;;;;2.82;100.00;103511.78;6082443;19;20471;-71
2024/01/27 00:56:09;;;;;;;5.95;1.80;;;;;;;2.82;100.00;103520.44;6081701;19;20039;-73
2024/01/27 00:58:14;;;;;;;4.53;2.60;;;;;;;2.83;100.00;103519.59;6084217;19;20108;-74
2024/01/27 01:00:19;;;;;;;7.88;2.38;;;;;;;2.81;100.00;103518.66;6081810;19;20014;-73
2024/01/27 01:02:28;;;;;;;9.13;2.33;;;;;;;2.90;100.00;103520.72;6082885;19;20343;-73
2024/01/27 01:04:33;;;;;;;6.75;2.33;;;;;;;2.83;100.00;103517.00;6086138;19;20010;-73
2024/01/27 01:06:41;;;;;;;12.23;3.80;;;;;;;2.86;100.00;103518.81;6087825;19;20626;-71
2024/01/27 01:08:46;;;;;;;9.73;2.78;;;;;;;2.82;100.00;103522.16;6091039;19;20522;-73
2024/01/27 01:10:51;;;;;;;2.53;1.73;;;;;;;2.78;100.00;103515.97;6089590;19;20006;-73
2024/01/27 01:12:54;;;;;;;2.28;1.75;;;;;;;2.72;100.00;103505.38;6088396;19;20014;-72
2024/01/27 01:14:59;;;;;;;6.18;3.40;;;;;;;2.75;100.00;103507.19;6088190;19;20082;-73
2024/01/27 01:17:05;;;;;;;12.07;3.00;;;;;;;2.85;100.00;103514.47;6087547;19;20034;-71
2024/01/27 01:19:10;;;;;;;5.43;2.38;;;;;;;2.82;100.00;103512.66;6087943;19;20038;-71
2024/01/27 01:21:15;;;;;;;12.55;2.63;;;;;;;2.79;100.00;103516.84;6088190;19;20011;-73
2024/01/27 01:23:20;;;;;;;2.10;1.80;;;;;;;2.76;100.00;103514.13;6087273;19;20031;-71
2024/01/27 01:25:25;;;;;;;10.02;2.58;;;;;;;2.74;100.00;103515.78;6089159;19;20082;-72
2024/01/27 01:27:32;;;;;;;10.13;3.63;;;;;;;2.69;100.00;103514.78;6089307;19;20078;-72
2024/01/27 01:29:40;;;;;;;6.40;2.33;;;;;;;2.63;100.00;103515.41;6083307;19;20418;-71
2024/01/27 01:31:42;;;;;;;10.25;2.88;;;;;;;2.59;100.00;103510.97;6088024;19;20007;-70
2024/01/27 01:33:47;;;;;;;7.63;2.88;;;;;;;2.54;100.00;103509.91;6087352;19;20010;-71
2024/01/27 01:35:56;;;;;;;5.55;2.65;;;;;;;2.47;100.00;103520.88;6089911;19;20421;-72
2024/01/27 01:37:58;;;;;;;9.77;2.60;;;;;;;2.49;100.00;103511.47;6089256;19;20010;-72
2024/01/27 01:40:03;;;;;;;6.93;2.83;;;;;;;2.41;100.00;103511.19;6091816;19;20074;-75
2024/01/27 01:42:11;;;;;;;5.80;3.05;;;;;;;2.33;100.00;103507.41;6088684;19;20031;-71
2024/01/27 01:44:13;;;;;;;10.45;2.60;;;;;;;2.27;100.00;103515.00;6088834;19;20793;-72
2024/01/27 01:46:18;;;;;;;5.75;2.55;;;;;;;2.20;100.00;103512.16;6089707;19;20019;-72
2024/01/27 01:48:24;;;;;;;8.68;2.72;;;;;;;2.13;100.00;103510.19;6090054;19;20002;-71
2024/01/27 01:50:29;;;;;;;16.55;2.97;;;;;;;2.10;100.00;103510.03;6083595;19;20026;-71
2024/01/27 01:52:37;;;;;;;7.15;2.63;;;;;;;2.09;100.00;103518.66;6088342;19;20027;-72
2024/01/27 01:54:42;;;;;;;5.60;2.55;;;;;;;2.05;100.00;103518.47;6090368;19;20514;-74
2024/01/27 01:56:47;;;;;;;7.53;2.65;;;;;;;2.06;100.00;103512.47;6088828;19;20019;-72
2024/01/27 01:58:52;;;;;;;6.97;2.85;;;;;;;1.93;100.00;103522.38;6090839;19;20522;-71
2024/01/27 02:00:57;;;;;;;10.57;4.20;;;;;;;1.91;100.00;103520.56;6088743;19;20006;-72
2024/01/27 02:03:03;;;;;;;7.47;2.50;;;;;;;1.89;100.00;103527.38;6088301;19;20015;-72
2024/01/27 02:05:09;;;;;;;5.50;2.15;;;;;;;1.96;100.00;103539.75;6087870;19;20038;-72
2024/01/27 02:07:15;;;;;;;9.88;2.25;;;;;;;1.94;100.00;103541.41;6087741;19;20351;-70
2024/01/27 02:09:22;;;;;;;8.07;3.20;;;;;;;1.99;100.00;103529.50;6087671;19;19999;-71
2024/01/27 02:11:28;;;;;;;4.30;2.22;;;;;;;1.95;100.00;103532.81;6086171;19;20273;-74
2024/01/27 02:13:33;;;;;;;9.80;2.50;;;;;;;1.90;100.00;103539.53;6086829;19;20525;-74
2024/01/27 02:15:38;;;;;;;10.82;2.65;;;;;;;1.92;100.00;103537.88;6086914;19;20011;-70
2024/01/27 02:17:43;;;;;;;8.70;2.60;;;;;;;1.82;100.00;103531.47;6084313;19;20401;-71
2024/01/27 02:19:48;;;;;;;9.18;2.75;;;;;;;1.84;100.00;103537.56;6086348;19;20007;-71
2024/01/27 02:21:56;;;;;;;9.68;2.80;;;;;;;1.79;100.00;103543.41;6081405;19;20018;-72
2024/01/27 02:24:01;;;;;;;7.32;2.72;;;;;;;1.85;100.00;103547.13;6081114;19;20010;-72
2024/01/27 02:26:09;;;;;;;11.00;2.35;;;;;;;1.86;100.00;103533.31;6085577;19;20380;-71
2024/01/27 02:28:15;;;;;;;9.82;2.60;;;;;;;1.91;100.00;103538.69;6085792;19;20034;-72
2024/01/27 02:30:20;;;;;;;8.35;2.50;;;;;;;1.89;100.00;103530.84;6086118;19;20003;-72
2024/01/27 02:32:25;;;;;;;7.25;3.03;;;;;;;1.92;100.00;103532.69;6087650;19;20277;-71
2024/01/27 02:34:31;;;;;;;12.65;3.63;;;;;;;1.89;100.00;103542.94;6083898;19;20015;-73
2024/01/27 02:36:36;;;;;;;6.68;2.97;;;;;;;1.85;100.00;103543.66;6085788;19;20006;-73
2024/01/27 02:38:39;;;;;;;5.53;2.90;;;;;;;1.86;100.00;103540.22;6084323;19;20624;-73
2024/01/27 02:40:44;;;;;;;3.35;2.42;;;;;;;1.91;100.00;103533.50;6083745;19;20395;-73
2024/01/27 02:42:51;;;;;;;11.13;2.90;;;;;;;1.95;100.00;103538.00;6083363;19;20463;-72
2024/01/27 02:44:54;;;;;;;13.73;2.65;;;;;;;2.02;100.00;103524.44;6083637;19;20388;-71
2024/01/27 02:47:00;;;;;;;7.18;2.67;;;;;;;1.91;100.00;103526.63;6084967;19;20006;-71
2024/01/27 02:49:05;;;;;;;6.35;2.85;;;;;;;1.95;100.00;103525.03;6084075;19;20443;-71
2024/01/27 02:51:10;;;;;;;7.47;2.78;;;;;;;1.97;100.00;103528.56;6084907;19;20010;-71
2024/01/27 02:53:15;;;;;;;10.38;3.03;;;;;;;1.97;100.00;103528.56;6080990;19;20010;-71
2024/01/27 02:55:20;;;;;;;7.72;2.92;;;;;;;1.80;100.00;103540.00;6083166;19;20383;-71
2024/01/27 02:57:25;;;;;;;4.55;2.20;;;;;;;1.84;100.00;103539.28;6084875;19;20002;-71
2024/01/27 02:59:33;;;;;;;5.07;2.13;;;;;;;1.79;100.00;103528.75;6083979;19;20002;-73
2024/01/27 03:01:38;;;;;;;9.05;2.65;;;;;;;1.84;100.00;103541.88;6087396;19;20010;-73
2024/01/27 03:03:43;;;;;;;5.07;3.35;;;;;;;1.91;100.00;103543.88;6082280;19;20010;-73
2024/01/27 03:05:48;;;;;;;5.43;2.75;;;;;;;1.87;100.00;103542.91;6083822;19;20013;-72
2024/01/27 03:07:53;;;;;;;13.45;2.78;;;;;;;1.85;100.00;103549.72;6085833;19;20025;-71
2024/01/27 03:10:01;;;;;;;8.25;3.30;;;;;;;1.84;100.00;103547.06;6084325;19;20011;-71
2024/01/27 03:12:07;;;;;;;9.93;3.70;;;;;;;1.84;100.00;103544.47;6081900;19;20011;-71
2024/01/27 03:14:13;;;;;;;12.88;3.53;;;;;;;1.88;100.00;103549.84;6084058;19;20021;-71
2024/01/27 03:16:20;;;;;;;8.32;3.38;;;;;;;1.90;100.00;103545.59;6079577;19;20471;-71
2024/01/27 03:18:26;;;;;;;11.40;5.10;;;;;;;1.87;100.00;103541.97;6083044;19;20526;-71
2024/01/27 03:20:31;;;;;;;7.47;3.40;;;;;;;1.79;100.00;103544.31;6082887;19;20006;-71
2024/01/27 03:22:36;;;;;;;10.18;4.47;;;;;;;1.84;100.00;103547.94;6085402;19;20033;-73
2024/01/27 03:24:42;;;;;;;17.20;3.72;;;;;;;1.83;100.00;103556.56;6083118;19;20002;-72
2024/01/27 03:26:47;;;;;;;11.57;4.55;;;;;;;1.84;100.00;103552.25;6081164;19;20006;-71
2024/01/27 03:28:50;;;;;;;13.85;4.88;;;;;;;1.88;100.00;103555.03;6079949;19;20515;-72
2024/01/27 03:30:55;;;;;;;10.02;4.75;;;;;;;1.88;100.00;103554.16;6081336;19;20017;-72
2024/01/27 03:33:03;;;;;;;7.38;4.85;;;;;;;1.85;100.00;103548.84;6082921;19;20030;-72
2024/01/27 03:35:09;;;;;;;8.60;4.45;;;;;;;1.84;100.00;103545.34;6084551;19;20014;-72
2024/01/27 03:37:14;;;;;;;10.02;4.50;;;;;;;1.86;100.00;103551.47;6078091;19;20013;-72
2024/01/27 03:39:19;;;;;;;9.93;5.22;;;;;;;1.84;100.00;103547.06;6085103;19;20015;-71
2024/01/27 03:41:26;;;;;;;13.35;6.57;;;;;;;1.83;100.00;103546.19;6084256;19;20020;-73
2024/01/27 03:43:31;;;;;;;13.82;5.60;;;;;;;1.79;100.00;103553.75;6084368;19;20023;-72
2024/01/27 03:45:36;;;;;;;11.63;5.35;;;;;;;1.81;100.00;103544.34;6084763;19;20039;-73
2024/01/27 03:47:38;;;;;;;13.77;5.75;;;;;;;1.73;100.00;103549.22;6082256;19;20530;-72
2024/01/27 03:49:46;;;;;;;15.43;7.10;;;;;;;1.85;100.00;103548.84;6077628;19;20071;-71
2024/01/27 03:51:49;;;;;;;16.35;6.85;;;;;;;1.81;100.00;103549.53;6082349;19;20042;-71
2024/01/27 03:53:54;;;;;;;13.75;5.45;;;;;;;1.77;100.00;103543.34;6081581;19;20013;-71
2024/01/27 03:56:02;;;;;;;17.45;7.03;;;;;;;1.78;100.00;103541.63;6083996;19;20003;-71
2024/01/27 03:58:10;;;;;;;13.05;6.80;;;;;;;1.77;100.00;103542.47;6081897;19;20013;-73
2024/01/27 04:00:16;;;;;;;12.75;6.45;;;;;;;1.79;100.00;103535.63;6084213;19;20022;-72
2024/01/27 04:02:21;;;;;;;9.45;5.90;;;;;;;1.81;100.00;103531.38;6080727;19;20301;-71
2024/01/27 04:04:26;;;;;;;14.48;5.45;;;;;;;1.72;100.00;103539.69;6082284;19;20548;-71
2024/01/27 04:06:39;;;;;;;11.73;6.63;;;;;;;1.77;100.00;103551.13;6083792;19;20011;-73
2024/01/27 04:08:45;;;;;;;16.40;7.07;;;;;;;1.75;100.00;103553.66;6083306;19;20010;-73
2024/01/27 04:10:50;;;;;;;18.15;7.55;;;;;;;1.71;100.00;103544.00;6083441;19;20232;-72
2024/01/27 04:12:56;;;;;;;14.23;5.93;;;;;;;1.65;100.00;103554.09;6083313;19;20094;-71
2024/01/27 04:15:01;;;;;;;11.93;5.70;;;;;;;1.65;100.00;103561.88;6082922;19;20017;-71
2024/01/27 04:17:07;;;;;;;10.55;6.25;;;;;;;1.60;100.00;103553.03;6081344;19;20027;-72
2024/01/27 04:19:09;;;;;;;10.23;6.18;;;;;;;1.63;100.00;103558.34;6081744;19;19999;-71
2024/01/27 04:21:15;;;;;;;13.05;6.40;;;;;;;1.67;100.00;103564.53;6081443;19;20034;-71
2024/01/27 04:23:22;;;;;;;21.65;7.03;;;;;;;1.64;100.00;103565.31;6082856;19;20566;-71
2024/01/27 04:25:36;;;;;;;19.23;6.55;;;;;;;1.67;100.00;103564.53;6084487;19;20014;-72
2024/01/27 04:27:56;;;;;;;13.88;7.20;;;;;;;1.60;100.00;103558.22;5980566;19;2006589;-71
2024/01/27 04:30:41;;;;;;;13.75;6.03;;;;;;;1.57;100.00;103558.09;6083699;19;20009;-71
2024/01/27 04:32:49;;;;;;;20.07;7.37;;;;;;;1.54;100.00;103564.03;6084491;19;19999;-72
2024/01/27 04:34:54;;;;;;;12.95;6.88;;;;;;;1.56;100.00;103553.75;6081733;19;20010;-73
2024/01/27 04:37:02;;;;;;;10.57;5.93;;;;;;;1.60;100.00;103553.03;6083914;19;20011;-73
2024/01/27 04:39:09;;;;;;;15.40;7.18;;;;;;;1.52;100.00;103546.66;6084104;19;20038;-72
2024/01/27 04:41:12;;;;;;;12.70;5.85;;;;;;;1.41;100.00;103548.81;6088963;19;20070;-72
2024/01/27 04:43:18;;;;;;;14.77;6.50;;;;;;;1.48;100.00;103552.56;6089814;19;20015;-73
2024/01/27 04:45:20;;;;;;;12.55;5.60;;;;;;;1.46;100.00;103559.38;6087894;19;20009;-71
2024/01/27 04:47:25;;;;;;;12.23;5.85;;;;;;;1.43;100.00;103559.25;6089680;19;20113;-73
2024/01/27 04:49:31;;;;;;;13.35;7.93;;;;;;;1.39;100.00;103537.50;6090843;19;20006;-73
2024/01/27 04:51:33;;;;;;;21.75;9.25;;;;;;;1.38;100.00;103540.94;6087558;19;20391;-74
2024/01/27 04:53:38;;;;;;;12.77;7.10;;;;;;;1.41;100.00;103545.34;6082918;19;20077;-72
2024/01/27 04:55:46;;;;;;;9.82;6.05;;;;;;;1.38;100.00;103547.81;6086098;19;20347;-73
2024/01/27 04:57:51;;;;;;;11.40;6.43;;;;;;;1.35;100.00;103550.28;6088444;19;20006;-72
2024/01/27 04:59:53;;;;;;;10.93;6.40;;;;;;;1.35;100.00;103552.88;6089795;19;20019;-72
2024/01/27 05:02:00;;;;;;;14.05;7.53;;;;;;;1.35;100.00;103552.88;6085286;19;20012;-72
2024/01/27 05:04:05;;;;;;;13.60;7.47;;;;;;;1.29;100.00;103551.81;6088682;19;20006;-73
2024/01/27 05:06:11;;;;;;;15.77;7.97;;;;;;;1.19;100.00;103549.66;6085469;19;20010;-71
2024/01/27 05:08:16;;;;;;;12.80;6.30;;;;;;;1.17;100.00;103560.75;6086808;19;20502;-71
2024/01/27 05:10:22;;;;;;;11.45;8.35;;;;;;;1.07;100.00;103559.47;6088565;19;20042;-71
2024/01/27 05:12:30;;;;;;;13.18;6.95;;;;;;;0.99;100.00;103560.88;6085552;19;20079;-71
2024/01/27 05:14:35;;;;;;;9.80;6.65;;;;;;;1.06;100.00;103562.91;6086953;19;20014;-72
2024/01/27 05:16:40;;;;;;;13.25;7.65;;;;;;;1.14;100.00;103561.53;6087032;19;20014;-73
2024/01/27 05:18:45;;;;;;;11.73;6.47;;;;;;;1.06;100.00;103553.44;6088004;19;20019;-73
2024/01/27 05:20:50;;;;;;;13.45;6.63;;;;;;;1.04;100.00;103559.34;6086338;19;20050;-72
2024/01/27 05:22:55;;;;;;;11.55;6.20;;;;;;;0.98;100.00;103552.22;6085144;19;20518;-72
2024/01/27 05:25:00;;;;;;;11.65;5.50;;;;;;;1.02;100.00;103551.50;6088421;19;20589;-72
2024/01/27 05:27:05;;;;;;;11.77;6.78;;;;;;;0.96;100.00;103556.44;6089883;19;20018;-73
2024/01/27 05:29:13;;;;;;;11.88;6.72;;;;;;;0.89;100.00;103551.81;6084889;19;20014;-73
2024/01/27 05:31:18;;;;;;;11.77;6.45;;;;;;;0.78;100.00;103559.09;6087043;19;20010;-73
2024/01/27 05:33:23;;;;;;;12.23;6.85;;;;;;;0.68;100.00;103569.00;6085397;19;20540;-73
2024/01/27 05:35:29;;;;;;;9.30;5.07;;;;;;;0.65;100.00;103564.56;6086176;19;20011;-74
2024/01/27 05:37:34;;;;;;;20.98;8.50;;;;;;;0.75;100.00;103571.91;6085128;19;20006;-73
2024/01/27 05:39:39;;;;;;;14.45;6.32;;;;;;;0.70;100.00;103564.78;6086181;19;20125;-72
2024/01/27 05:41:44;;;;;;;11.30;6.22;;;;;;;0.65;100.00;103555.09;6086011;19;20829;-72
2024/01/27 05:43:49;;;;;;;12.73;7.88;;;;;;;0.62;100.00;103559.25;6088574;19;20023;-72
2024/01/27 05:45:57;;;;;;;15.40;6.90;;;;;;;0.60;100.00;103558.31;6086488;19;20096;-72
2024/01/27 05:48:03;;;;;;;12.10;6.05;;;;;;;0.60;100.00;103566.94;6084328;19;20039;-73
2024/01/27 05:50:10;;;;;;;10.00;5.38;;;;;;;0.64;100.00;103560.22;6087341;19;20011;-72
2024/01/27 05:52:15;;;;;;;11.73;7.22;;;;;;;0.61;100.00;103560.09;6085340;19;20007;-75
2024/01/27 05:54:35;;;;;;;14.68;7.72;;;;;;;0.55;100.00;103564.97;6088763;19;20015;-74
2024/01/27 05:56:40;;;;;;;13.15;7.88;;;;;;;0.51;100.00;103565.66;6088576;19;20010;-72
2024/01/27 05:58:46;;;;;;;10.13;5.13;;;;;;;0.39;100.00;103574.63;6088604;19;20038;-73
2024/01/27 06:00:54;;;;;;;17.23;5.97;;;;;;;0.53;100.00;103569.22;6085262;19;20334;-76
2024/01/27 06:03:01;;;;;;;14.25;7.03;;;;;;;0.49;100.00;103559.53;6085713;19;20017;-72
2024/01/27 06:05:08;;;;;;;10.48;6.22;;;;;;;0.41;100.00;103565.25;6085413;19;20042;-72
2024/01/27 06:07:13;;;;;;;33.40;7.50;;;;;;;0.47;100.00;103561.16;6081789;19;20014;-73
2024/01/27 06:09:19;;;;;;;15.60;7.95;;;;;;;0.53;100.00;103553.69;6087363;19;20030;-71
2024/01/27 06:11:24;;;;;;;15.13;5.95;;;;;;;0.54;100.00;103547.69;6085770;19;20011;-72
2024/01/27 06:13:29;;;;;;;14.15;6.65;;;;;;;0.53;100.00;103544.22;6087699;19;21326;-74
2024/01/27 06:15:35;;;;;;;10.18;6.05;;;;;;;0.42;100.00;103541.16;6086381;19;20002;-72
2024/01/27 06:17:40;;;;;;;11.02;6.85;;;;;;;0.41;100.00;103543.66;6086194;19;20039;-72
2024/01/27 06:19:47;;;;;;;15.25;6.95;;;;;;;0.39;100.00;103543.59;6085065;19;20018;-71
2024/01/27 06:21:53;;;;;;;14.10;6.85;;;;;;;0.52;100.00;103551.91;6082422;19;20021;-73
2024/01/27 06:23:58;;;;;;;10.82;6.53;;;;;;;0.49;100.00;103555.22;6087141;19;20426;-71
2024/01/27 06:26:08;;;;;;;7.25;5.43;;;;;;;0.52;100.00;103555.38;6080558;19;20007;-71
2024/01/27 06:28:14;;;;;;;12.65;6.70;;;;;;;0.54;100.00;103550.28;6081422;19;20494;-72
2024/01/27 06:30:19;;;;;;;16.23;6.88;;;;;;;0.58;100.00;103555.66;6085622;19;20011;-73
2024/01/27 06:32:25;;;;;;;13.95;7.47;;;;;;;0.64;100.00;103573.16;6083136;19;20010;-71
2024/01/27 06:34:30;;;;;;;15.68;7.03;;;;;;;0.60;100.00;103581.59;6083619;19;20062;-73
2024/01/27 06:36:38;;;;;;;15.20;7.40;;;;;;;0.59;100.00;103585.88;6083683;19;20011;-73
2024/01/27 06:38:41;;;;;;;12.40;7.57;;;;;;;0.49;100.00;103580.22;6084659;19;20260;-71
2024/01/27 06:40:46;;;;;;;14.73;6.55;;;;;;;0.38;100.00;103596.13;6085244;19;20351;-71
2024/01/27 06:42:51;;;;;;;15.63;7.43;;;;;;;0.33;100.00;103595.03;6086417;19;20482;-71
2024/01/27 06:44:56;;;;;;;14.20;7.40;;;;;;;0.35;100.00;103598.59;6084791;19;20042;-71
2024/01/27 06:47:01;;;;;;;13.48;8.55;;;;;;;0.46;100.00;103591.31;6085777;19;20060;-72
2024/01/27 06:49:06;;;;;;;15.65;8.00;;;;;;;0.42;100.00;103592.91;6084763;19;20010;-73
2024/01/27 06:51:11;;;;;;;13.82;8.23;;;;;;;0.51;100.00;103588.94;6086013;19;20010;-73
2024/01/27 06:53:23;;;;;;;12.70;7.60;;;;;;;0.53;100.00;103592.50;6081604;19;20018;-73
2024/01/27 06:55:28;;;;;;;12.35;8.10;;;;;;;0.52;100.00;103588.13;6086124;19;20269;-74
2024/01/27 06:57:33;;;;;;;14.70;9.45;;;;;;;0.51;100.00;103596.72;6084269;19;20481;-73
2024/01/27 06:59:36;;;;;;;15.65;8.13;;;;;;;0.49;100.00;103598.34;6083405;19;20428;-71
2024/01/27 07:01:41;;;;;;;16.70;8.52;;;;;;;0.47;100.00;103598.25;6084655;19;20038;-74
2024/01/27 07:03:47;;;;;;;17.40;8.80;;;;;;;0.52;100.00;103601.06;6080807;19;20017;-73
2024/01/27 07:05:52;;;;;;;24.20;10.07;;;;;;;0.54;100.00;103599.44;6083227;19;20007;-73
2024/01/27 07:07:57;;;;;;;17.77;9.23;;;;;;;0.58;100.00;103593.56;6084924;19;20007;-71
2024/01/27 07:10:05;;;;;;;11.05;7.85;;;;;;;0.55;100.00;103591.72;6085417;19;20388;-71
2024/01/27 07:12:12;;;;;;;12.65;8.55;;;;;;;0.51;100.00;103589.84;6081258;19;20090;-71
2024/01/27 07:14:14;;;;;;;13.80;7.93;;;;;;;0.59;100.00;103593.66;6083057;19;20032;-71
2024/01/27 07:16:19;;;;;;;15.93;8.27;;;;;;;0.58;100.00;103580.63;6084150;19;20474;-72
2024/01/27 07:18:24;;;;;;;10.95;7.15;;;;;;;0.56;100.00;103579.69;6082837;19;20090;-71
2024/01/27 07:20:28;;;;;;;15.82;9.02;;;;;;;0.58;100.00;103584.13;6085716;19;20070;-72
2024/01/27 07:22:36;;;;;;;15.65;8.70;;;;;;;0.60;100.00;103595.41;6085310;19;20566;-73
2024/01/27 07:24:41;;;;;;;17.55;9.13;;;;;;;0.74;100.00;103600.31;6087131;19;20023;-73
2024/01/27 07:26:49;;;;;;;20.75;9.43;;;;;;;0.65;100.00;103590.44;6088941;19;20058;-73
2024/01/27 07:28:57;;;;;;;20.05;7.93;;;;;;;0.63;100.00;103602.41;6087163;19;20826;-71
2024/01/27 07:31:02;;;;;;;15.23;9.20;;;;;;;0.66;100.00;103592.22;6083587;19;20002;-71
2024/01/27 07:33:08;;;;;;;14.98;9.32;;;;;;;0.70;100.00;103590.66;6081287;19;20015;-71
2024/01/27 07:35:15;;;;;;;13.90;9.35;;;;;;;0.78;100.00;103592.75;6081971;19;20023;-72
2024/01/27 07:37:18;;;;;;;14.82;7.88;;;;;;;0.73;100.00;103593.38;6085975;19;20319;-73
2024/01/27 07:39:23;;;;;;;19.00;9.48;;;;;;;0.79;100.00;103594.56;6084842;19;20297;-73
2024/01/27 07:41:32;;;;;;;14.55;9.77;;;;;;;0.84;100.00;103598.22;6082440;19;20082;-72
2024/01/27 07:43:41;;;;;;;15.90;8.55;;;;;;;0.96;100.00;103590.09;6082438;19;20350;-73
2024/01/27 07:45:47;;;;;;;11.88;8.48;;;;;;;0.99;100.00;103585.03;6085556;19;20116;-73
2024/01/27 07:47:51;;;;;;;14.95;9.60;;;;;;;1.01;100.00;103579.94;6082941;19;20474;-73
2024/01/27 07:49:57;;;;;;;24.98;11.07;;;;;;;1.00;100.00;103580.75;6082681;19;20551;-74
2024/01/27 07:52:02;;;;;;;15.30;8.30;;;;;;;0.97;100.00;103586.66;6082834;19;20006;-72
2024/01/27 07:54:07;;;;;;;16.05;9.38;;;;;;;1.02;100.00;103579.13;6082353;19;20715;-72
2024/01/27 07:56:12;;;;;;;17.50;9.48;;;;;;;0.97;100.00;103578.03;6080208;19;20002;-71
2024/01/27 07:58:17;;;;;;;14.70;9.20;;;;;;;0.92;100.00;103589.88;6080196;19;20033;-72
2024/01/27 08:00:28;;;;;;;12.48;9.43;;;;;;;0.98;100.00;103593.63;6082462;19;20019;-71
2024/01/27 08:02:31;;;;;;;12.95;9.23;;;;;;;1.08;100.00;103582.00;6081139;19;20654;-71
2024/01/27 08:04:36;;;;;;;12.25;8.48;;;;;;;1.05;100.00;103579.25;6081386;19;20390;-73
2024/01/27 08:06:46;;;;;;;11.63;8.32;;;;;;;1.02;100.00;103581.69;6084273;19;20100;-71
2024/01/27 08:08:51;;;;;;;14.93;9.00;;;;;;;1.06;100.00;103581.03;6082383;19;20021;-72
2024/01/27 08:10:56;;;;;;;13.57;9.27;;;;;;;1.17;100.00;103586.66;6084840;19;20351;-72
2024/01/27 08:12:59;;;;;;;16.88;9.68;;;;;;;1.07;100.00;103591.44;6083745;19;20015;-73
2024/01/27 08:15:08;;;;;;;;;;;;;;;1.18;100.00;103599.66;6092438;19;20014;-73
2024/01/27 08:17:16;;;;;;;19.52;8.27;;;;;;;1.20;100.00;103604.91;6094838;19;20246;-73
2024/01/27 08:19:21;;;;;;;19.60;9.77;;;;;;;1.20;100.00;103604.91;6093795;19;20632;-72
2024/01/27 08:21:26;;;;;;;18.73;8.85;;;;;;;1.16;100.00;103603.91;6094060;19;20014;-72
2024/01/27 08:23:31;;;;;;;16.77;8.52;;;;;;;1.20;100.00;103595.44;6092752;19;20014;-73
2024/01/27 08:25:36;;;;;;;17.75;10.10;;;;;;;1.24;100.00;103597.34;6092179;19;20006;-72
2024/01/27 08:27:38;;;;;;;22.98;9.35;;;;;;;1.30;100.00;103609.69;6095162;19;20541;-73
2024/01/27 08:29:43;;;;;;;14.65;8.57;;;;;;;1.35;100.00;103617.66;6096115;19;20014;-72
2024/01/27 08:31:46;;;;;;;17.63;8.38;;;;;;;1.42;100.00;103617.97;6096975;19;20006;-73
2024/01/27 08:33:54;;;;;;;13.77;9.63;;;;;;;1.52;100.00;103619.22;6095874;19;20089;-72
2024/01/27 08:35:59;;;;;;;27.88;10.15;;;;;;;1.54;100.00;103630.53;6095606;19;20043;-73
2024/01/27 08:38:06;;;;;;;17.50;9.73;;;;;;;1.50;100.00;103629.53;6096804;19;20105;-72
2024/01/27 08:40:12;;;;;;;15.15;8.55;;;;;;;1.50;100.00;103626.03;6091657;19;20002;-72
2024/01/27 08:42:16;;;;;;;16.90;9.65;;;;;;;1.52;100.00;103622.69;6090667;19;20002;-71
2024/01/27 08:44:23;;;;;;;21.23;10.10;;;;;;;1.53;100.00;103626.19;6097148;19;20043;-73
2024/01/27 08:46:28;;;;;;;18.17;9.95;;;;;;;1.62;100.00;103623.09;6093095;19;20038;-72
2024/01/27 08:48:31;;;;;;;17.42;9.75;;;;;;;1.69;100.00;103626.00;6095832;19;20010;-72
2024/01/27 08:50:38;;;;;;;14.65;9.15;;;;;;;1.73;100.00;103627.88;6094741;19;20598;-71
2024/01/27 08:52:41;;;;;;;16.48;9.15;;;;;;;1.83;100.00;103621.38;6093849;19;20093;-72
2024/01/27 08:54:46;;;;;;;19.42;9.95;;;;;;;1.91;100.00;103625.16;6094605;19;20063;-72
2024/01/27 08:56:51;;;;;;;21.75;10.93;;;;;;;1.90;100.00;103618.22;6091827;19;20038;-72
2024/01/27 08:58:56;;;;;;;15.00;9.23;;;;;;;1.93;100.00;103614.84;6095760;19;20043;-72
2024/01/27 09:01:05;;;;;;;16.70;11.38;;;;;;;1.93;100.00;103615.72;6094862;19;20066;-72
2024/01/27 09:03:11;;;;;;;17.40;10.73;;;;;;;2.06;100.00;103611.03;6087122;19;20011;-72
2024/01/27 09:05:14;;;;;;;16.70;10.32;;;;;;;2.04;100.00;103608.38;6092019;19;19999;-73
2024/01/27 09:07:22;;;;;;;15.73;8.95;;;;;;;2.17;100.00;103610.63;6094583;19;20010;-74
2024/01/27 09:09:29;;;;;;;18.42;9.52;;;;;;;2.20;100.00;103610.72;6091738;19;20510;-74
2024/01/27 09:11:35;;;;;;;23.30;11.30;;;;;;;2.25;100.00;103625.59;6092319;19;20003;-71
2024/01/27 09:13:37;;;;;;;20.92;10.30;;;;;;;2.33;100.00;103629.38;6092907;19;20085;-71
2024/01/27 09:15:42;;;;;;;17.67;11.52;;;;;;;2.37;100.00;103634.75;6092975;19;20600;-71
2024/01/27 09:17:48;;;;;;;22.10;10.48;;;;;;;2.44;100.00;103633.25;6091786;19;20523;-72
2024/01/27 09:19:54;;;;;;;16.20;10.23;;;;;;;2.52;100.00;103636.16;6088769;19;20035;-72
2024/01/27 09:21:59;;;;;;;15.27;9.65;;;;;;;2.57;100.00;103626.81;6091129;19;20032;-72
2024/01/27 09:24:08;;;;;;;19.17;10.25;;;;;;;2.58;100.00;103626.91;6090107;19;20038;-73
2024/01/27 09:26:18;;;;;;;21.90;10.35;;;;;;;2.63;100.00;103627.94;6090387;19;20490;-73
2024/01/27 09:28:23;;;;;;;19.52;10.32;;;;;;;2.68;100.00;103635.88;6089347;19;20028;-71
2024/01/27 09:30:29;;;;;;;20.35;11.18;;;;;;;2.76;100.00;103633.56;6082476;19;20473;-72
2024/01/27 09:32:37;;;;;;;16.95;10.40;;;;;;;2.80;100.00;103631.16;6087646;19;20038;-71
2024/01/27 09:34:42;;;;;;;21.17;11.63;;;;;;;2.90;100.00;103627.19;6085364;19;20003;-71
2024/01/27 09:36:47;;;;;;;15.82;11.48;;;;;;;2.98;100.00;103630.06;6088080;19;20086;-72
2024/01/27 09:38:53;;;;;;;18.55;11.52;;;;;;;3.02;100.00;103630.22;6082992;19;20042;-73
2024/01/27 09:41:01;;;;;;;20.77;12.13;;;;;;;3.06;100.00;103623.44;6086054;19;20034;-73